MHU weather

Mount Hotham Airport
Mount Hotham, Victoria, Australia

Public forecast

Using degrees Celsius for public forecast. Weather courtesy of forecast.io.

Closest aviation weather report (METAR) to Mount Hotham Airport

Closest report is Albury Airport, 61.6 nm (114.0 km) NNW. Retrieved 2020/02/18 21:00 UTC (20 minutes ago):

YMAY 182100Z AUTO 28009KT 9999 // SCT029 OVC039 16/10 Q1006

Closest aviation forecast (TAF) to Mount Hotham Airport

Closest forecast is Wangaratta Airport, 62.3 nm (115.4 km) NW. Retrieved 2020/02/18 19:03 UTC (2 hours ago):

TAF YWGT 181735Z 1819/1908 26010KT 9999 SCT035 FM190100 23015G25KT 9999 SCT035